createdAt,value
2023-05-07T00:00:20.990Z,0
2023-05-07T00:01:20.689Z,0
2023-05-07T00:02:21.583Z,0
2023-05-07T00:03:22.298Z,0
2023-05-07T00:04:23.504Z,0
2023-05-07T00:05:24.116Z,0
2023-05-07T00:06:23.456Z,0
2023-05-07T00:07:22.906Z,0
2023-05-07T00:08:23.683Z,0
2023-05-07T00:09:24.100Z,0
2023-05-07T00:10:25.105Z,0
2023-05-07T00:11:25.685Z,0
2023-05-07T00:12:26.606Z,0
2023-05-07T00:13:27.554Z,0
2023-05-07T00:14:28.264Z,0
2023-05-07T00:15:29.338Z,0
2023-05-07T00:16:28.931Z,0
2023-05-07T00:17:29.504Z,0
2023-05-07T00:18:30.040Z,0
2023-05-07T00:19:30.571Z,0
2023-05-07T00:20:31.494Z,0
2023-05-07T00:21:32.454Z,0
2023-05-07T00:22:33.215Z,0
2023-05-07T00:23:34.246Z,0
2023-05-07T00:24:33.940Z,0
2023-05-07T00:25:34.861Z,0
2023-05-07T00:26:35.434Z,0
2023-05-07T00:27:35.917Z,0
2023-05-07T00:28:36.451Z,0
2023-05-07T00:29:37.084Z,0
2023-05-07T00:30:37.788Z,0
2023-05-07T00:31:38.477Z,0
2023-05-07T00:32:39.468Z,0
2023-05-07T00:33:39.989Z,0
2023-05-07T00:34:40.813Z,0
2023-05-07T00:35:41.715Z,0
2023-05-07T00:36:42.201Z,0
2023-05-07T00:37:43.136Z,0
2023-05-07T00:38:44.172Z,0
2023-05-07T00:39:44.421Z,0
2023-05-07T00:40:46.132Z,0
2023-05-07T00:41:46.650Z,0
2023-05-07T00:42:47.336Z,0
2023-05-07T00:43:48.265Z,0
2023-05-07T00:44:48.976Z,0
2023-05-07T00:45:50.098Z,0
2023-05-07T00:46:50.550Z,0
2023-05-07T00:47:51.530Z,0
2023-05-07T00:48:51.865Z,0
2023-05-07T00:49:52.965Z,0
2023-05-07T00:50:52.706Z,0
2023-05-07T00:51:53.613Z,0
2023-05-07T00:52:54.397Z,0
2023-05-07T00:53:55.214Z,0
2023-05-07T00:54:55.494Z,0
2023-05-07T00:55:56.403Z,0
2023-05-07T00:56:57.190Z,0
2023-05-07T00:57:57.934Z,0
2023-05-07T00:58:59.416Z,0
2023-05-07T00:59:59.451Z,0
2023-05-07T01:01:00.377Z,0
2023-05-07T01:02:00.991Z,0
2023-05-07T01:03:03.484Z,0
2023-05-07T01:04:04.324Z,0
2023-05-07T01:05:05.483Z,0
2023-05-07T01:06:06.315Z,0
2023-05-07T01:07:06.029Z,0
2023-05-07T01:08:05.353Z,0
2023-05-07T01:09:05.942Z,0
2023-05-07T01:10:06.252Z,0
2023-05-07T01:11:07.369Z,0
2023-05-07T01:12:07.349Z,0
2023-05-07T01:13:08.572Z,0
2023-05-07T01:14:09.408Z,0
2023-05-07T01:15:10.177Z,0
2023-05-07T01:16:10.677Z,0
2023-05-07T01:17:11.375Z,0
2023-05-07T01:18:12.277Z,0
2023-05-07T01:19:12.536Z,0
2023-05-07T01:20:13.720Z,0
2023-05-07T01:21:13.711Z,0
2023-05-07T01:22:14.040Z,0
2023-05-07T01:23:14.513Z,0
2023-05-07T01:24:15.332Z,0
2023-05-07T01:25:16.290Z,0
2023-05-07T01:26:17.243Z,0
2023-05-07T01:27:18.042Z,0
2023-05-07T01:28:18.982Z,0
2023-05-07T01:29:18.770Z,0
2023-05-07T01:30:19.867Z,0
2023-05-07T01:31:19.426Z,0
2023-05-07T01:32:19.753Z,0
2023-05-07T01:33:20.252Z,0
2023-05-07T01:34:20.563Z,0
2023-05-07T01:35:21.749Z,0
2023-05-07T01:36:21.663Z,0
2023-05-07T01:37:21.957Z,0
2023-05-07T01:38:22.556Z,0
2023-05-07T01:39:23.380Z,0
2023-05-07T01:40:24.278Z,0
2023-05-07T01:41:24.370Z,0
2023-05-07T01:42:25.082Z,0
2023-05-07T01:43:25.986Z,0
2023-05-07T01:44:26.904Z,0
2023-05-07T01:45:27.599Z,0
2023-05-07T01:46:29.061Z,0
2023-05-07T01:47:28.641Z,0
2023-05-07T01:48:29.193Z,0
2023-05-07T01:49:29.872Z,0
2023-05-07T01:50:31.191Z,0
2023-05-07T01:51:30.683Z,0
2023-05-07T01:52:30.969Z,0
2023-05-07T01:53:31.294Z,0
2023-05-07T01:54:31.861Z,0
2023-05-07T01:55:32.391Z,0
2023-05-07T01:56:32.666Z,0
2023-05-07T01:57:33.713Z,0
2023-05-07T01:58:34.489Z,0
2023-05-07T01:59:35.183Z,0
2023-05-07T02:00:35.972Z,0
2023-05-07T02:01:36.901Z,0
2023-05-07T02:02:38.096Z,0
2023-05-07T02:03:38.553Z,0
2023-05-07T02:04:38.740Z,0
2023-05-07T02:05:38.903Z,0
2023-05-07T02:06:39.025Z,0
2023-05-07T02:07:38.401Z,0
2023-05-07T02:08:39.167Z,0
2023-05-07T02:09:40.351Z,0
2023-05-07T02:10:40.898Z,0
2023-05-07T02:11:41.182Z,0
2023-05-07T02:12:41.839Z,0
2023-05-07T02:13:42.807Z,0
2023-05-07T02:14:43.812Z,0
2023-05-07T02:15:44.727Z,0
2023-05-07T02:16:45.624Z,0
2023-05-07T02:17:46.393Z,0
2023-05-07T02:18:47.157Z,0
2023-05-07T02:19:47.439Z,0
2023-05-07T02:20:48.574Z,0
2023-05-07T02:21:48.282Z,0
2023-05-07T02:22:48.585Z,0
2023-05-07T02:23:49.480Z,0
2023-05-07T02:24:50.220Z,0
2023-05-07T02:25:50.521Z,0
2023-05-07T02:26:51.199Z,0
2023-05-07T02:27:52.022Z,0
2023-05-07T02:28:52.733Z,0
2023-05-07T02:29:53.685Z,0
2023-05-07T02:30:54.283Z,0
2023-05-07T02:31:54.836Z,0
2023-05-07T02:32:55.374Z,0
2023-05-07T02:33:56.333Z,0
2023-05-07T02:34:57.003Z,0
2023-05-07T02:35:58.084Z,0
2023-05-07T02:36:59.113Z,0
2023-05-07T02:37:59.844Z,0
2023-05-07T02:39:00.751Z,0
2023-05-07T02:40:01.355Z,0
2023-05-07T02:41:01.915Z,0
2023-05-07T02:42:02.433Z,0
2023-05-07T02:43:03.092Z,0
2023-05-07T02:44:03.371Z,0
2023-05-07T02:45:05.157Z,0
2023-05-07T02:46:05.863Z,0
2023-05-07T02:47:06.381Z,0
2023-05-07T02:48:07.163Z,0
2023-05-07T02:49:07.876Z,0
2023-05-07T02:50:08.197Z,0
2023-05-07T02:51:09.662Z,0
2023-05-07T02:52:10.220Z,0
2023-05-07T02:53:10.537Z,0
2023-05-07T02:54:10.750Z,0
2023-05-07T02:55:11.404Z,0
2023-05-07T02:56:11.914Z,0
2023-05-07T02:57:12.703Z,0
2023-05-07T02:58:13.440Z,0
2023-05-07T02:59:14.343Z,0
2023-05-07T03:00:15.478Z,0
2023-05-07T03:02:16.227Z,0
2023-05-07T03:03:17.053Z,0
2023-05-07T03:04:18.215Z,0
2023-05-07T03:05:19.021Z,0
2023-05-07T03:06:19.858Z,0
2023-05-07T03:07:20.385Z,0
2023-05-07T03:08:21.273Z,0
2023-05-07T03:09:22.012Z,0
2023-05-07T03:10:23.704Z,0
2023-05-07T03:11:23.117Z,0
2023-05-07T03:12:23.605Z,0
2023-05-07T03:13:24.682Z,0
2023-05-07T03:14:24.258Z,0
2023-05-07T03:15:25.274Z,0
2023-05-07T03:16:26.387Z,0
2023-05-07T03:17:25.809Z,0
2023-05-07T03:18:27.341Z,0
2023-05-07T03:19:26.879Z,0
2023-05-07T03:20:28.178Z,0
2023-05-07T03:21:27.751Z,0
2023-05-07T03:22:28.229Z,0
2023-05-07T03:23:30.278Z,0
2023-05-07T03:24:30.016Z,0
2023-05-07T03:25:30.410Z,0
2023-05-07T03:26:30.815Z,0
2023-05-07T03:27:31.326Z,0
2023-05-07T03:28:32.192Z,0
2023-05-07T03:29:32.545Z,0
2023-05-07T03:30:33.048Z,0
2023-05-07T03:31:33.745Z,0
2023-05-07T03:32:34.860Z,0
2023-05-07T03:33:35.172Z,0
2023-05-07T03:34:35.643Z,0
2023-05-07T03:35:36.534Z,0
2023-05-07T03:36:37.293Z,0
2023-05-07T03:37:38.202Z,0
2023-05-07T03:38:38.708Z,0
2023-05-07T03:39:39.112Z,0
2023-05-07T03:40:40.814Z,0
2023-05-07T03:42:41.096Z,0
2023-05-07T03:43:41.928Z,0
2023-05-07T03:44:43.063Z,0
2023-05-07T03:45:43.379Z,0
2023-05-07T03:46:44.672Z,0
2023-05-07T03:47:44.890Z,0
2023-05-07T03:48:44.421Z,0
2023-05-07T03:49:45.197Z,0
2023-05-07T03:50:46.129Z,0
2023-05-07T03:51:46.386Z,0
2023-05-07T03:52:47.199Z,0
2023-05-07T03:53:48.108Z,0
2023-05-07T03:54:48.410Z,0
2023-05-07T03:55:49.242Z,0
2023-05-07T03:56:50.136Z,0
2023-05-07T03:57:50.817Z,0
2023-05-07T03:58:51.874Z,0
2023-05-07T03:59:52.584Z,0
2023-05-07T04:00:53.188Z,0
2023-05-07T04:01:53.904Z,0
2023-05-07T04:02:55.275Z,0
2023-05-07T04:03:55.381Z,0
2023-05-07T04:04:55.167Z,0
2023-05-07T04:05:55.661Z,5.63
2023-05-07T04:06:56.489Z,5.63
2023-05-07T04:07:57.401Z,5.63
2023-05-07T04:08:57.909Z,5.63
2023-05-07T04:09:58.249Z,5.63
2023-05-07T04:10:59.116Z,5.63
2023-05-07T04:11:58.912Z,5.63
2023-05-07T04:13:00.632Z,5.63
2023-05-07T04:14:01.581Z,5.63
2023-05-07T04:15:02.478Z,5.63
2023-05-07T04:16:03.310Z,5.63
2023-05-07T04:17:04.421Z,11.25
2023-05-07T04:18:04.985Z,11.25
2023-05-07T04:19:06.106Z,11.25
2023-05-07T04:20:06.804Z,11.25
2023-05-07T04:21:07.299Z,11.25
2023-05-07T04:22:08.561Z,11.25
2023-05-07T04:23:08.266Z,11.25
2023-05-07T04:24:09.005Z,11.25
2023-05-07T04:25:09.696Z,11.25
2023-05-07T04:26:10.408Z,11.25
2023-05-07T04:27:10.942Z,16.88
2023-05-07T04:28:14.109Z,16.88
2023-05-07T04:29:12.708Z,16.88
2023-05-07T04:30:13.333Z,16.88
2023-05-07T04:31:13.934Z,16.88
2023-05-07T04:32:15.200Z,16.88
2023-05-07T04:33:16.227Z,16.88
2023-05-07T04:34:16.754Z,16.88
2023-05-07T04:35:17.272Z,22.5
2023-05-07T04:36:17.794Z,22.5
2023-05-07T04:37:18.399Z,22.5
2023-05-07T04:38:19.108Z,22.5
2023-05-07T04:39:20.014Z,22.5
2023-05-07T04:40:21.282Z,22.5
2023-05-07T04:41:21.313Z,22.5
2023-05-07T04:42:20.995Z,28.13
2023-05-07T04:43:21.477Z,28.13
2023-05-07T04:44:22.121Z,28.13
2023-05-07T04:45:23.016Z,28.13
2023-05-07T04:46:23.880Z,28.13
2023-05-07T04:47:24.631Z,33.75
2023-05-07T04:48:25.390Z,33.75
2023-05-07T04:49:25.696Z,33.75
2023-05-07T04:50:26.843Z,33.75
2023-05-07T04:51:27.621Z,33.75
2023-05-07T04:52:29.553Z,33.75
2023-05-07T04:53:28.457Z,33.75
2023-05-07T04:54:29.157Z,33.75
2023-05-07T04:55:29.712Z,33.75
2023-05-07T04:56:30.441Z,33.75
2023-05-07T04:57:30.930Z,33.75
2023-05-07T04:58:31.832Z,33.75
2023-05-07T04:59:33.043Z,33.75
2023-05-07T05:00:32.733Z,33.75
2023-05-07T05:01:34.159Z,33.75
2023-05-07T05:02:36.287Z,33.75
2023-05-07T05:03:34.587Z,33.75
2023-05-07T05:04:34.449Z,33.75
2023-05-07T05:05:34.748Z,33.75
2023-05-07T05:06:35.056Z,33.75
2023-05-07T05:07:36.346Z,39.38
2023-05-07T05:08:36.135Z,39.38
2023-05-07T05:09:36.441Z,39.38
2023-05-07T05:10:40.229Z,39.38
2023-05-07T05:11:38.070Z,39.38
2023-05-07T05:12:38.213Z,45
2023-05-07T05:13:39.104Z,45
2023-05-07T05:14:39.897Z,45
2023-05-07T05:15:44.837Z,45
2023-05-07T05:16:40.567Z,45
2023-05-07T05:17:41.438Z,45
2023-05-07T05:18:41.971Z,50.63
2023-05-07T05:19:42.282Z,50.63
2023-05-07T05:20:42.813Z,50.63
2023-05-07T05:21:43.527Z,50.63
2023-05-07T05:22:44.487Z,50.63
2023-05-07T05:23:45.228Z,50.63
2023-05-07T05:24:45.747Z,50.63
2023-05-07T05:25:46.033Z,50.63
2023-05-07T05:26:46.698Z,50.63
2023-05-07T05:27:47.432Z,56.25
2023-05-07T05:28:47.915Z,56.25
2023-05-07T05:29:48.784Z,56.25
2023-05-07T05:30:49.307Z,56.25
2023-05-07T05:31:50.631Z,56.25
2023-05-07T05:32:51.397Z,61.88
2023-05-07T05:33:51.164Z,61.88
2023-05-07T05:34:51.679Z,61.88
2023-05-07T05:35:52.385Z,61.88
2023-05-07T05:36:53.105Z,61.88
2023-05-07T05:37:54.217Z,61.88
2023-05-07T05:38:53.911Z,61.88
2023-05-07T05:39:54.398Z,61.88
2023-05-07T05:40:56.602Z,67.5
2023-05-07T05:41:55.430Z,67.5
2023-05-07T05:42:56.409Z,67.5
2023-05-07T05:43:56.954Z,67.5
2023-05-07T05:44:57.573Z,67.5
2023-05-07T05:45:58.589Z,67.5
2023-05-07T05:46:59.777Z,67.5
2023-05-07T05:48:00.687Z,67.5
2023-05-07T05:49:00.408Z,67.5
2023-05-07T05:50:00.595Z,67.5
2023-05-07T05:51:00.930Z,67.5
2023-05-07T05:52:01.461Z,67.5
2023-05-07T05:53:01.740Z,67.5
2023-05-07T05:54:02.861Z,67.5
2023-05-07T05:55:02.764Z,73.13
2023-05-07T05:56:03.090Z,73.13
2023-05-07T05:57:04.130Z,73.13
2023-05-07T05:58:04.754Z,73.13
2023-05-07T05:59:05.652Z,73.13
2023-05-07T06:00:05.685Z,73.13
2023-05-07T06:01:06.588Z,78.75
2023-05-07T06:02:07.719Z,78.75
2023-05-07T06:03:08.028Z,78.75
2023-05-07T06:04:07.949Z,78.75
2023-05-07T06:05:09.079Z,78.75
2023-05-07T06:06:09.043Z,78.75
2023-05-07T06:07:09.762Z,78.75
2023-05-07T06:08:10.660Z,78.75
2023-05-07T06:09:11.426Z,78.75
2023-05-07T06:10:12.364Z,84.38
2023-05-07T06:11:13.333Z,84.38
2023-05-07T06:12:17.046Z,84.38
2023-05-07T06:13:14.227Z,84.38
2023-05-07T06:14:15.065Z,78.75
2023-05-07T06:15:16.171Z,73.13
2023-05-07T06:16:16.133Z,73.13
2023-05-07T06:17:18.783Z,78.75
2023-05-07T06:18:18.027Z,84.38
2023-05-07T06:19:18.359Z,90
2023-05-07T06:20:19.536Z,90
2023-05-07T06:21:19.281Z,90
2023-05-07T06:22:19.662Z,90
2023-05-07T06:23:23.174Z,90
2023-05-07T06:24:20.914Z,90
2023-05-07T06:25:21.387Z,90
2023-05-07T06:26:22.333Z,84.38
2023-05-07T06:27:23.122Z,78.75
2023-05-07T06:28:23.440Z,84.38
2023-05-07T06:29:23.740Z,90
2023-05-07T06:30:24.647Z,90
2023-05-07T06:31:25.353Z,95.63
2023-05-07T06:32:26.739Z,90
2023-05-07T06:33:27.384Z,95.63
2023-05-07T06:34:28.299Z,95.63
2023-05-07T06:35:28.830Z,95.63
2023-05-07T06:36:29.339Z,101.25
2023-05-07T06:37:30.066Z,95.63
2023-05-07T06:38:30.942Z,95.63
2023-05-07T06:39:31.871Z,95.63
2023-05-07T06:40:32.794Z,106.88
2023-05-07T06:41:33.676Z,112.5
2023-05-07T06:42:34.493Z,106.88
2023-05-07T06:43:35.039Z,112.5
2023-05-07T06:44:36.169Z,112.5
2023-05-07T06:45:37.403Z,106.88
2023-05-07T06:46:37.313Z,101.25
2023-05-07T06:47:38.118Z,101.25
2023-05-07T06:48:38.694Z,106.88
2023-05-07T06:49:39.502Z,112.5
2023-05-07T06:50:39.812Z,106.88
2023-05-07T06:51:40.725Z,106.88
2023-05-07T06:52:41.291Z,118.13
2023-05-07T06:53:42.304Z,123.75
2023-05-07T06:54:42.622Z,123.75
2023-05-07T06:55:43.141Z,135
2023-05-07T06:56:43.658Z,140.63
2023-05-07T06:57:44.281Z,196.88
2023-05-07T06:58:44.955Z,320.63
2023-05-07T06:59:45.496Z,376.88
2023-05-07T07:00:46.438Z,292.5
2023-05-07T07:01:47.832Z,258.75
2023-05-07T07:02:48.016Z,348.75
2023-05-07T07:03:47.645Z,433.13
2023-05-07T07:04:50.611Z,534.38
2023-05-07T07:05:48.151Z,832.5
2023-05-07T07:06:49.221Z,922.5
2023-05-07T07:07:49.917Z,590.63
2023-05-07T07:08:51.045Z,360
2023-05-07T07:09:50.951Z,213.75
2023-05-07T07:10:51.662Z,180
2023-05-07T07:11:52.243Z,168.75
2023-05-07T07:12:53.323Z,163.13
2023-05-07T07:13:53.351Z,163.13
2023-05-07T07:14:55.303Z,157.5
2023-05-07T07:15:56.332Z,163.13
2023-05-07T07:16:57.118Z,168.75
2023-05-07T07:17:58.043Z,180
2023-05-07T07:18:59.090Z,185.63
2023-05-07T07:19:59.618Z,213.75
2023-05-07T07:20:59.928Z,174.38
2023-05-07T07:22:00.665Z,168.75
2023-05-07T07:23:01.398Z,185.63
2023-05-07T07:24:02.303Z,191.25
2023-05-07T07:25:03.144Z,213.75
2023-05-07T07:26:03.692Z,180
2023-05-07T07:27:04.199Z,208.13
2023-05-07T07:28:05.213Z,241.88
2023-05-07T07:29:05.722Z,241.88
2023-05-07T07:30:06.466Z,354.38
2023-05-07T07:31:07.533Z,365.63
2023-05-07T07:32:08.526Z,309.38
2023-05-07T07:33:09.662Z,196.88
2023-05-07T07:34:09.987Z,196.88
2023-05-07T07:35:10.694Z,241.88
2023-05-07T07:36:11.656Z,388.13
2023-05-07T07:37:12.600Z,219.38
2023-05-07T07:38:12.335Z,225
2023-05-07T07:39:13.165Z,264.38
2023-05-07T07:40:13.878Z,433.13
2023-05-07T07:41:14.897Z,444.38
2023-05-07T07:42:15.654Z,371.25
2023-05-07T07:43:16.224Z,258.75
2023-05-07T07:44:19.074Z,213.75
2023-05-07T07:45:17.626Z,219.38
2023-05-07T07:46:18.374Z,213.75
2023-05-07T07:47:19.587Z,196.88
2023-05-07T07:48:19.585Z,185.63
2023-05-07T07:49:20.322Z,202.5
2023-05-07T07:50:43.321Z,196.88
2023-05-07T07:51:21.267Z,185.63
2023-05-07T07:52:21.992Z,191.25
2023-05-07T07:53:22.926Z,196.88
2023-05-07T07:54:23.695Z,208.13
2023-05-07T07:55:23.618Z,213.75
2023-05-07T07:56:24.326Z,225
2023-05-07T07:57:25.046Z,258.75
2023-05-07T07:58:25.878Z,281.25
2023-05-07T07:59:26.593Z,258.75
2023-05-07T08:00:27.527Z,303.75
2023-05-07T08:01:28.123Z,360
2023-05-07T08:02:29.617Z,371.25
2023-05-07T08:03:30.190Z,286.88
2023-05-07T08:05:30.826Z,219.38
2023-05-07T08:06:31.374Z,230.63
2023-05-07T08:07:31.691Z,247.5
2023-05-07T08:08:32.379Z,241.88
2023-05-07T08:09:33.426Z,326.25
2023-05-07T08:10:35.099Z,365.63
2023-05-07T08:11:34.712Z,309.38
2023-05-07T08:12:35.439Z,303.75
2023-05-07T08:13:36.553Z,376.88
2023-05-07T08:14:36.961Z,410.63
2023-05-07T08:15:37.309Z,388.13
2023-05-07T08:16:42.228Z,500.63
2023-05-07T08:17:38.783Z,528.75
2023-05-07T08:18:39.647Z,438.75
2023-05-07T08:19:40.422Z,292.5
2023-05-07T08:20:41.553Z,258.75
2023-05-07T08:21:45.715Z,298.13
2023-05-07T08:22:42.884Z,292.5
2023-05-07T08:23:42.699Z,225
2023-05-07T08:24:43.706Z,213.75
2023-05-07T08:25:44.221Z,208.13
2023-05-07T08:26:44.312Z,208.13
2023-05-07T08:27:45.064Z,208.13
2023-05-07T08:28:45.692Z,208.13
2023-05-07T08:29:46.384Z,213.75
2023-05-07T08:30:46.866Z,236.25
2023-05-07T08:31:47.461Z,264.38
2023-05-07T08:32:48.310Z,275.63
2023-05-07T08:33:49.041Z,376.88
2023-05-07T08:34:49.688Z,472.5
2023-05-07T08:35:49.876Z,416.25
2023-05-07T08:36:50.616Z,382.5
2023-05-07T08:37:51.128Z,371.25
2023-05-07T08:38:51.674Z,292.5
2023-05-07T08:39:53.031Z,270
2023-05-07T08:40:53.145Z,281.25
2023-05-07T08:41:53.896Z,309.38
2023-05-07T08:42:55.037Z,292.5
2023-05-07T08:43:55.816Z,393.75
2023-05-07T08:44:56.235Z,405
2023-05-07T08:45:56.994Z,444.38
2023-05-07T08:46:58.364Z,579.38
2023-05-07T08:47:58.496Z,658.13
2023-05-07T08:48:58.625Z,686.25
2023-05-07T08:49:58.981Z,753.75
2023-05-07T08:50:59.682Z,590.63
2023-05-07T08:52:00.222Z,427.5
2023-05-07T08:53:00.782Z,427.5
2023-05-07T08:54:01.514Z,646.88
2023-05-07T08:55:02.763Z,618.75
2023-05-07T08:56:02.510Z,669.38
2023-05-07T08:57:03.038Z,759.38
2023-05-07T08:58:03.758Z,703.13
2023-05-07T08:59:04.802Z,720
2023-05-07T09:00:05.110Z,736.88
2023-05-07T09:01:06.034Z,691.88
2023-05-07T09:02:09.270Z,697.5
2023-05-07T09:03:08.072Z,646.88
2023-05-07T09:04:08.941Z,607.5
2023-05-07T09:05:09.593Z,607.5
2023-05-07T09:06:10.995Z,596.25
2023-05-07T09:07:10.507Z,562.5
2023-05-07T09:08:11.011Z,579.38
2023-05-07T09:09:11.832Z,573.75
2023-05-07T09:10:13.170Z,590.63
2023-05-07T09:11:12.851Z,601.88
2023-05-07T09:12:13.575Z,483.75
2023-05-07T09:13:13.888Z,416.25
2023-05-07T09:14:15.321Z,337.5
2023-05-07T09:15:14.363Z,343.13
2023-05-07T09:16:15.317Z,348.75
2023-05-07T09:17:16.128Z,298.13
2023-05-07T09:18:16.947Z,354.38
2023-05-07T09:19:18.041Z,365.63
2023-05-07T09:20:21.886Z,376.88
2023-05-07T09:21:19.618Z,365.63
2023-05-07T09:22:20.188Z,388.13
2023-05-07T09:23:20.713Z,393.75
2023-05-07T09:24:21.043Z,405
2023-05-07T09:25:23.241Z,405
2023-05-07T09:26:24.526Z,421.88
2023-05-07T09:27:24.228Z,421.88
2023-05-07T09:28:24.756Z,410.63
2023-05-07T09:29:25.388Z,399.38
2023-05-07T09:30:26.179Z,410.63
2023-05-07T09:31:31.724Z,410.63
2023-05-07T09:32:28.011Z,421.88
2023-05-07T09:33:28.183Z,399.38
2023-05-07T09:34:28.464Z,376.88
2023-05-07T09:35:29.046Z,410.63
2023-05-07T09:36:30.053Z,416.25
2023-05-07T09:37:31.056Z,416.25
2023-05-07T09:38:31.378Z,371.25
2023-05-07T09:39:31.898Z,388.13
2023-05-07T09:40:32.947Z,382.5
2023-05-07T09:41:33.518Z,360
2023-05-07T09:42:34.064Z,354.38
2023-05-07T09:43:34.973Z,331.88
2023-05-07T09:44:35.550Z,337.5
2023-05-07T09:45:36.296Z,331.88
2023-05-07T09:46:36.764Z,309.38
2023-05-07T09:47:37.932Z,292.5
2023-05-07T09:48:37.903Z,309.38
2023-05-07T09:49:38.459Z,303.75
2023-05-07T09:50:38.606Z,315
2023-05-07T09:51:39.306Z,354.38
2023-05-07T09:52:40.229Z,388.13
2023-05-07T09:53:40.765Z,416.25
2023-05-07T09:54:41.888Z,382.5
2023-05-07T09:55:42.981Z,382.5
2023-05-07T09:56:42.885Z,399.38
2023-05-07T09:57:43.199Z,388.13
2023-05-07T09:58:44.115Z,399.38
2023-05-07T09:59:46.813Z,399.38
2023-05-07T10:00:45.518Z,410.63
2023-05-07T10:01:46.257Z,410.63
2023-05-07T10:02:47.430Z,410.63
2023-05-07T10:03:48.575Z,410.63
2023-05-07T10:04:48.113Z,393.75
2023-05-07T10:05:48.480Z,405
2023-05-07T10:06:48.793Z,393.75
2023-05-07T10:07:49.716Z,393.75
2023-05-07T10:08:50.025Z,382.5
2023-05-07T10:09:50.632Z,399.38
2023-05-07T10:10:51.626Z,405
2023-05-07T10:11:51.235Z,405
2023-05-07T10:12:52.093Z,393.75
2023-05-07T10:13:53.239Z,393.75
2023-05-07T10:14:54.171Z,388.13
2023-05-07T10:16:54.798Z,399.38
2023-05-07T10:17:56.210Z,393.75
2023-05-07T10:18:56.673Z,393.75
2023-05-07T10:19:56.620Z,388.13
2023-05-07T10:20:57.857Z,393.75
2023-05-07T10:21:58.376Z,399.38
2023-05-07T10:22:58.684Z,399.38
2023-05-07T10:23:59.206Z,405
2023-05-07T10:25:00.132Z,410.63
2023-05-07T10:26:06.170Z,405
2023-05-07T10:27:01.106Z,427.5
2023-05-07T10:28:01.653Z,444.38
2023-05-07T10:29:02.323Z,421.88
2023-05-07T10:30:03.591Z,433.13
2023-05-07T10:31:04.436Z,455.63
2023-05-07T10:32:05.166Z,444.38
2023-05-07T10:33:06.052Z,405
2023-05-07T10:34:07.020Z,438.75
2023-05-07T10:35:07.987Z,444.38
2023-05-07T10:36:08.332Z,455.63
2023-05-07T10:37:08.859Z,455.63
2023-05-07T10:38:09.581Z,450
2023-05-07T10:39:10.533Z,466.88
2023-05-07T10:40:11.292Z,455.63
2023-05-07T10:41:12.432Z,461.25
2023-05-07T10:42:12.142Z,455.63
2023-05-07T10:43:16.040Z,455.63
2023-05-07T10:44:13.341Z,461.25
2023-05-07T10:45:14.799Z,433.13
2023-05-07T10:47:15.759Z,472.5
2023-05-07T10:48:39.511Z,466.88
2023-05-07T10:49:15.777Z,472.5
2023-05-07T10:50:17.145Z,472.5
2023-05-07T10:51:18.969Z,450
2023-05-07T10:52:17.696Z,461.25
2023-05-07T10:53:18.410Z,438.75
2023-05-07T10:54:18.918Z,433.13
2023-05-07T10:55:19.767Z,433.13
2023-05-07T10:56:20.514Z,438.75
2023-05-07T10:57:21.011Z,444.38
2023-05-07T10:58:41.857Z,466.88
2023-05-07T10:59:22.169Z,461.25
2023-05-07T11:01:23.612Z,433.13
2023-05-07T11:02:23.975Z,433.13
2023-05-07T11:03:25.976Z,427.5
2023-05-07T11:04:25.693Z,433.13
2023-05-07T11:05:27.218Z,438.75
2023-05-07T11:07:27.645Z,421.88
2023-05-07T11:08:28.403Z,427.5
2023-05-07T11:09:28.955Z,433.13
2023-05-07T11:10:29.510Z,421.88
2023-05-07T11:11:30.143Z,421.88
2023-05-07T11:12:30.847Z,286.88
2023-05-07T11:13:31.763Z,241.88
2023-05-07T11:14:32.489Z,270
2023-05-07T11:15:33.681Z,348.75
2023-05-07T11:16:33.124Z,354.38
2023-05-07T11:17:36.501Z,393.75
2023-05-07T11:18:34.319Z,320.63
2023-05-07T11:19:34.030Z,225
2023-05-07T11:20:35.183Z,191.25
2023-05-07T11:21:35.059Z,180
2023-05-07T11:22:35.971Z,168.75
2023-05-07T11:23:36.917Z,168.75
2023-05-07T11:24:37.852Z,174.38
2023-05-07T11:25:38.363Z,185.63
2023-05-07T11:26:39.224Z,185.63
2023-05-07T11:27:39.932Z,180
2023-05-07T11:28:40.880Z,174.38
2023-05-07T11:29:41.193Z,168.75
2023-05-07T11:30:41.752Z,168.75
2023-05-07T11:31:42.695Z,191.25
2023-05-07T11:32:47.090Z,185.63
2023-05-07T11:33:43.483Z,174.38
2023-05-07T11:34:44.234Z,174.38
2023-05-07T11:35:47.972Z,208.13
2023-05-07T11:36:44.957Z,202.5
2023-05-07T11:37:46.674Z,247.5
2023-05-07T11:38:47.187Z,264.38
2023-05-07T11:39:47.898Z,202.5
2023-05-07T11:40:48.233Z,163.13
2023-05-07T11:41:49.725Z,151.88
2023-05-07T11:42:51.881Z,140.63
2023-05-07T11:43:49.511Z,135
2023-05-07T11:44:50.234Z,135
2023-05-07T11:45:51.352Z,140.63
2023-05-07T11:46:52.297Z,140.63
2023-05-07T11:47:53.465Z,135
2023-05-07T11:48:53.713Z,135
2023-05-07T11:49:53.690Z,135
2023-05-07T11:50:54.422Z,135
2023-05-07T11:51:54.903Z,135
2023-05-07T11:52:55.831Z,135
2023-05-07T11:53:56.579Z,135
2023-05-07T11:54:57.493Z,140.63
2023-05-07T11:55:58.001Z,140.63
2023-05-07T11:56:59.310Z,146.25
2023-05-07T11:58:00.016Z,146.25
2023-05-07T11:59:00.748Z,151.88
2023-05-07T12:00:01.089Z,185.63
2023-05-07T12:01:02.141Z,230.63
2023-05-07T12:02:03.032Z,196.88
2023-05-07T12:03:04.123Z,174.38
2023-05-07T12:04:04.454Z,185.63
2023-05-07T12:05:03.425Z,309.38
2023-05-07T12:06:04.375Z,315
2023-05-07T12:07:04.941Z,196.88
2023-05-07T12:08:05.488Z,180
2023-05-07T12:09:06.597Z,174.38
2023-05-07T12:10:06.948Z,174.38
2023-05-07T12:11:07.844Z,191.25
2023-05-07T12:12:08.617Z,298.13
2023-05-07T12:13:09.667Z,320.63
2023-05-07T12:14:14.887Z,331.88
2023-05-07T12:15:10.825Z,337.5
2023-05-07T12:16:11.553Z,331.88
2023-05-07T12:17:12.145Z,326.25
2023-05-07T12:18:13.097Z,315
2023-05-07T12:19:15.645Z,315
2023-05-07T12:20:14.221Z,315
2023-05-07T12:21:15.219Z,303.75
2023-05-07T12:22:15.581Z,286.88
2023-05-07T12:23:16.516Z,163.13
2023-05-07T12:24:16.842Z,219.38
2023-05-07T12:25:18.076Z,151.88
2023-05-07T12:26:18.649Z,140.63
2023-05-07T12:27:18.312Z,135
2023-05-07T12:28:19.433Z,129.38
2023-05-07T12:29:19.372Z,123.75
2023-05-07T12:30:19.979Z,123.75
2023-05-07T12:31:21.379Z,123.75
2023-05-07T12:32:23.976Z,118.13
2023-05-07T12:33:21.392Z,118.13
2023-05-07T12:34:21.921Z,112.5
2023-05-07T12:35:23.212Z,106.88
2023-05-07T12:36:24.073Z,106.88
2023-05-07T12:38:25.211Z,95.63
2023-05-07T12:39:25.733Z,95.63
2023-05-07T12:40:26.241Z,90
2023-05-07T12:41:26.954Z,84.38
2023-05-07T12:42:27.550Z,84.38
2023-05-07T12:43:28.057Z,78.75
2023-05-07T12:44:29.063Z,78.75
2023-05-07T12:45:30.808Z,78.75
2023-05-07T12:46:31.042Z,78.75
2023-05-07T12:47:31.586Z,73.13
2023-05-07T12:48:32.346Z,67.5
2023-05-07T12:49:36.133Z,61.88
2023-05-07T12:50:33.702Z,56.25
2023-05-07T12:51:34.677Z,50.63
2023-05-07T12:52:35.263Z,50.63
2023-05-07T12:53:36.271Z,45
2023-05-07T12:54:37.171Z,39.38
2023-05-07T12:55:45.264Z,39.38
2023-05-07T12:57:39.707Z,39.38
2023-05-07T12:58:40.672Z,39.38
2023-05-07T12:59:41.405Z,33.75
2023-05-07T13:00:42.123Z,33.75
2023-05-07T13:01:42.944Z,33.75
2023-05-07T13:02:43.850Z,28.13
2023-05-07T13:03:44.996Z,28.13
2023-05-07T13:04:45.179Z,28.13
2023-05-07T13:05:45.287Z,28.13
2023-05-07T13:06:45.801Z,22.5
2023-05-07T13:07:47.350Z,22.5
2023-05-07T13:08:47.116Z,22.5
2023-05-07T13:09:47.817Z,22.5
2023-05-07T13:10:48.320Z,16.88
2023-05-07T13:11:48.609Z,16.88
2023-05-07T13:12:49.345Z,16.88
2023-05-07T13:13:50.234Z,16.88
2023-05-07T13:14:50.953Z,11.25
2023-05-07T13:15:51.302Z,11.25
2023-05-07T13:16:52.578Z,11.25
2023-05-07T13:17:53.086Z,11.25
2023-05-07T13:18:53.493Z,11.25
2023-05-07T13:19:52.840Z,11.25
2023-05-07T13:20:53.570Z,11.25
2023-05-07T13:21:54.578Z,11.25
2023-05-07T13:22:55.133Z,11.25
2023-05-07T13:23:56.175Z,11.25
2023-05-07T13:24:56.495Z,11.25
2023-05-07T13:25:57.290Z,11.25
2023-05-07T13:27:02.289Z,11.25
2023-05-07T13:28:11.112Z,11.25
2023-05-07T13:28:59.498Z,11.25
2023-05-07T13:30:00.468Z,11.25
2023-05-07T13:31:01.171Z,5.63
2023-05-07T13:32:03.392Z,5.63
2023-05-07T13:33:02.046Z,5.63
2023-05-07T13:34:02.886Z,5.63
2023-05-07T13:35:03.812Z,5.63
2023-05-07T13:36:04.488Z,5.63
2023-05-07T13:37:05.650Z,11.25
2023-05-07T13:38:05.956Z,11.25
2023-05-07T13:39:06.483Z,11.25